createdAt,value
2018-01-08T00:01:51.300Z,83.27
2018-01-08T00:04:18.777Z,84.07
2018-01-08T00:06:46.322Z,79.97
2018-01-08T00:09:13.800Z,80.53
2018-01-08T00:11:41.282Z,88.47
2018-01-08T00:14:08.753Z,82.03
2018-01-08T00:16:36.259Z,88.93
2018-01-08T00:19:03.716Z,93.20
2018-01-08T00:21:31.182Z,113.70
2018-01-08T00:23:58.667Z,103.47
2018-01-08T00:26:26.139Z,98.30
2018-01-08T00:28:53.595Z,100.17
2018-01-08T00:31:21.081Z,102.03
2018-01-08T00:33:48.595Z,106.47
2018-01-08T00:36:16.099Z,99.57
2018-01-08T00:38:43.560Z,116.53
2018-01-08T00:41:11.061Z,111.30
2018-01-08T00:43:38.555Z,117.87
2018-01-08T00:46:06.032Z,120.40
2018-01-08T00:48:33.523Z,127.93
2018-01-08T00:51:00.997Z,130.50
2018-01-08T00:53:28.459Z,147.37
2018-01-08T00:55:55.963Z,128.73
2018-01-08T00:58:23.434Z,148.37
2018-01-08T01:00:50.892Z,132.83
2018-01-08T01:03:19.159Z,139.43
2018-01-08T01:05:46.709Z,136.27
2018-01-08T01:08:14.257Z,137.47
2018-01-08T01:10:41.732Z,131.53
2018-01-08T01:13:09.216Z,135.03
2018-01-08T01:15:36.706Z,131.33
2018-01-08T01:18:04.213Z,134.37
2018-01-08T01:20:33.412Z,143.50
2018-01-08T01:23:00.878Z,128.90
2018-01-08T01:25:28.399Z,124.80
2018-01-08T01:27:55.883Z,127.00
2018-01-08T01:30:23.371Z,134.47
2018-01-08T01:32:50.864Z,133.93
2018-01-08T01:35:18.335Z,121.73
2018-01-08T01:37:45.799Z,132.20
2018-01-08T01:40:13.371Z,118.27
2018-01-08T01:42:40.853Z,122.37
2018-01-08T01:45:08.370Z,120.30
2018-01-08T01:47:35.926Z,123.23
2018-01-08T01:50:03.440Z,115.50
2018-01-08T01:52:30.913Z,128.43
2018-01-08T01:54:58.371Z,119.93
2018-01-08T01:57:25.845Z,120.87
2018-01-08T01:59:53.323Z,119.90
2018-01-08T02:02:23.011Z,120.40
2018-01-08T02:04:50.534Z,115.90
2018-01-08T02:07:18.009Z,114.90
2018-01-08T02:09:45.464Z,126.87
2018-01-08T02:12:12.926Z,114.30
2018-01-08T02:14:40.503Z,105.57
2018-01-08T02:17:07.979Z,109.30
2018-01-08T02:19:35.501Z,111.10
2018-01-08T02:22:02.968Z,104.17
2018-01-08T02:24:30.865Z,95.97
2018-01-08T02:26:58.319Z,101.53
2018-01-08T02:29:25.800Z,104.17
2018-01-08T02:31:53.294Z,102.60
2018-01-08T02:34:20.752Z,96.70
2018-01-08T02:36:48.319Z,96.83
2018-01-08T02:39:15.820Z,101.83
2018-01-08T02:41:43.289Z,109.40
2018-01-08T02:44:10.782Z,105.47
2018-01-08T02:46:38.426Z,107.83
2018-01-08T02:49:05.876Z,109.73
2018-01-08T02:51:33.363Z,102.47
2018-01-08T02:54:00.818Z,103.37
2018-01-08T02:56:28.322Z,105.97
2018-01-08T02:58:55.779Z,101.23
2018-01-08T03:01:23.239Z,104.40
2018-01-08T03:03:50.718Z,96.10
2018-01-08T03:06:18.176Z,107.57
2018-01-08T03:08:45.634Z,105.83
2018-01-08T03:11:13.091Z,110.03
2018-01-08T03:13:40.547Z,111.33
2018-01-08T03:16:08.023Z,112.70
2018-01-08T03:18:35.527Z,111.43
2018-01-08T03:21:03.003Z,111.03
2018-01-08T03:23:30.503Z,110.13
2018-01-08T03:25:57.978Z,99.63
2018-01-08T03:28:25.454Z,109.10
2018-01-08T03:30:52.912Z,111.77
2018-01-08T03:33:20.408Z,107.30
2018-01-08T03:35:47.889Z,103.00
2018-01-08T03:38:15.486Z,105.57
2018-01-08T03:40:42.968Z,101.70
2018-01-08T03:43:10.557Z,104.37
2018-01-08T03:45:38.009Z,119.20
2018-01-08T03:48:05.489Z,108.47
2018-01-08T03:50:32.976Z,103.87
2018-01-08T03:53:00.443Z,101.37
2018-01-08T03:55:27.964Z,101.87
2018-01-08T03:57:55.436Z,99.47
2018-01-08T04:00:23.784Z,94.00
2018-01-08T04:02:51.269Z,101.70
2018-01-08T04:05:18.748Z,93.50
2018-01-08T04:07:46.201Z,102.70
2018-01-08T04:10:13.663Z,94.47
2018-01-08T04:12:41.155Z,96.27
2018-01-08T04:15:08.611Z,92.10
2018-01-08T04:17:36.096Z,85.70
2018-01-08T04:20:03.558Z,90.33
2018-01-08T04:22:31.033Z,95.17
2018-01-08T04:25:01.699Z,91.83
2018-01-08T04:27:29.190Z,99.93
2018-01-08T04:29:57.502Z,97.00
2018-01-08T04:32:26.510Z,95.77
2018-01-08T04:34:54.369Z,91.40
2018-01-08T04:37:23.146Z,92.43
2018-01-08T04:39:51.006Z,89.37
2018-01-08T04:42:18.607Z,97.77
2018-01-08T04:44:46.078Z,97.13
2018-01-08T04:47:14.110Z,87.77
2018-01-08T04:49:42.231Z,81.73
2018-01-08T04:52:09.866Z,82.57
2018-01-08T04:54:37.314Z,88.40
2018-01-08T04:57:04.786Z,86.17
2018-01-08T04:59:32.246Z,87.90
2018-01-08T05:02:00.215Z,86.53
2018-01-08T05:04:27.666Z,91.30
2018-01-08T05:06:55.123Z,82.07
2018-01-08T05:09:22.622Z,83.57
2018-01-08T05:11:50.083Z,88.10
2018-01-08T05:14:17.543Z,89.50
2018-01-08T05:16:45.022Z,88.60
2018-01-08T05:19:12.511Z,76.60
2018-01-08T05:21:40.133Z,80.00
2018-01-08T05:24:07.670Z,82.40
2018-01-08T05:26:35.282Z,74.67
2018-01-08T05:29:02.758Z,81.17
2018-01-08T05:31:30.231Z,83.30
2018-01-08T05:33:57.700Z,86.10
2018-01-08T05:36:25.239Z,79.83
2018-01-08T05:38:52.728Z,89.50
2018-01-08T05:41:20.191Z,75.57
2018-01-08T05:43:47.667Z,84.83
2018-01-08T05:46:15.396Z,72.03
2018-01-08T05:48:42.884Z,75.80
2018-01-08T05:51:10.351Z,75.57
2018-01-08T05:53:37.810Z,76.03
2018-01-08T05:56:05.287Z,93.87
2018-01-08T05:58:32.805Z,77.50
2018-01-08T06:01:00.275Z,79.77
2018-01-08T06:03:27.782Z,81.43
2018-01-08T06:05:55.251Z,76.97
2018-01-08T06:08:22.767Z,77.20
2018-01-08T06:10:50.253Z,85.57
2018-01-08T06:13:17.727Z,79.03
2018-01-08T06:15:45.210Z,75.77
2018-01-08T06:18:12.666Z,77.63
2018-01-08T06:20:40.159Z,65.33
2018-01-08T06:23:07.616Z,70.63
2018-01-08T06:25:35.087Z,80.80
2018-01-08T06:28:02.553Z,70.10
2018-01-08T06:30:30.132Z,71.40
2018-01-08T06:32:57.620Z,68.80
2018-01-08T06:35:25.114Z,66.13
2018-01-08T06:37:52.575Z,63.60
2018-01-08T06:40:20.040Z,65.90
2018-01-08T06:42:49.774Z,67.50
2018-01-08T06:45:17.355Z,60.10
2018-01-08T06:47:45.479Z,60.20
2018-01-08T06:50:12.942Z,57.83
2018-01-08T06:52:40.404Z,65.80
2018-01-08T06:55:07.883Z,61.47
2018-01-08T06:57:35.343Z,62.33
2018-01-08T07:00:02.889Z,55.60
2018-01-08T07:02:31.347Z,57.97
2018-01-08T07:04:58.867Z,61.63
2018-01-08T07:07:26.356Z,62.03
2018-01-08T07:09:53.807Z,61.37
2018-01-08T07:12:21.271Z,66.77
2018-01-08T07:14:48.736Z,65.13
2018-01-08T07:17:16.231Z,58.23
2018-01-08T07:19:43.709Z,66.60
2018-01-08T07:22:11.179Z,64.70
2018-01-08T07:24:38.661Z,61.07
2018-01-08T07:27:06.128Z,48.47
2018-01-08T07:29:33.591Z,47.23
2018-01-08T07:32:01.058Z,56.87
2018-01-08T07:34:28.539Z,50.23
2018-01-08T07:36:56.005Z,51.60
2018-01-08T07:39:23.606Z,46.80
2018-01-08T07:41:51.069Z,48.03
2018-01-08T07:44:18.694Z,47.83
2018-01-08T07:46:46.218Z,49.47
2018-01-08T07:49:13.746Z,52.20
2018-01-08T07:51:41.233Z,45.23
2018-01-08T07:54:08.742Z,44.43
2018-01-08T07:56:36.971Z,51.50
2018-01-08T07:59:04.540Z,48.53
2018-01-08T08:01:32.058Z,49.43
2018-01-08T08:03:59.514Z,53.27
2018-01-08T08:06:26.979Z,47.13
2018-01-08T08:08:54.468Z,52.17
2018-01-08T08:11:21.967Z,55.67
2018-01-08T08:13:49.429Z,51.07
2018-01-08T08:16:17.028Z,49.97
2018-01-08T08:18:44.482Z,63.23
2018-01-08T08:21:12.084Z,54.70
2018-01-08T08:23:39.567Z,52.83
2018-01-08T08:26:07.309Z,51.20
2018-01-08T08:28:34.779Z,58.57
2018-01-08T08:31:02.253Z,49.70
2018-01-08T08:33:29.723Z,52.83
2018-01-08T08:35:57.182Z,57.70
2018-01-08T08:38:24.628Z,50.03
2018-01-08T08:40:52.123Z,51.23
2018-01-08T08:43:19.587Z,46.70
2018-01-08T08:45:47.035Z,50.10
2018-01-08T08:48:14.500Z,52.20
2018-01-08T08:50:42.013Z,49.97
2018-01-08T08:53:09.467Z,63.93
2018-01-08T08:55:36.933Z,57.07
2018-01-08T08:58:04.431Z,47.80
2018-01-08T09:00:31.963Z,47.17
2018-01-08T09:02:59.450Z,44.43
2018-01-08T09:05:26.920Z,47.50
2018-01-08T09:07:54.398Z,57.87
2018-01-08T09:10:21.863Z,52.03
2018-01-08T09:12:49.347Z,44.03
2018-01-08T09:15:16.859Z,44.27
2018-01-08T09:17:44.319Z,69.43
2018-01-08T09:20:11.783Z,51.40
2018-01-08T09:22:39.247Z,43.77
2018-01-08T09:25:06.714Z,45.53
2018-01-08T09:27:34.201Z,47.17
2018-01-08T09:30:01.691Z,46.87
2018-01-08T09:32:29.155Z,49.50
2018-01-08T09:34:56.634Z,45.60
2018-01-08T09:37:24.110Z,50.33
2018-01-08T09:39:51.574Z,47.27
2018-01-08T09:42:19.040Z,50.50
2018-01-08T09:44:46.564Z,49.70
2018-01-08T09:47:14.131Z,55.03
2018-01-08T09:49:41.643Z,50.60
2018-01-08T09:52:09.152Z,46.00
2018-01-08T09:54:36.619Z,44.40
2018-01-08T09:57:04.102Z,44.37
2018-01-08T09:59:31.567Z,41.37
2018-01-08T10:01:59.082Z,48.80
2018-01-08T10:04:38.454Z,43.83
2018-01-08T10:07:17.715Z,47.93
2018-01-08T10:09:56.870Z,41.67
2018-01-08T10:12:36.165Z,56.30
2018-01-08T10:15:15.659Z,53.03
2018-01-08T10:17:54.789Z,47.03
2018-01-08T10:20:22.334Z,44.20
2018-01-08T10:22:49.841Z,43.13
2018-01-08T10:25:17.298Z,38.37
2018-01-08T10:27:44.769Z,41.90
2018-01-08T10:30:12.243Z,35.67
2018-01-08T10:32:39.727Z,38.97
2018-01-08T10:35:07.207Z,36.83
2018-01-08T10:37:34.676Z,37.13
2018-01-08T10:40:02.163Z,42.70
2018-01-08T10:42:35.290Z,44.17
2018-01-08T10:45:08.320Z,39.77
2018-01-08T10:47:41.283Z,44.20
2018-01-08T10:50:14.414Z,39.00
2018-01-08T10:52:42.619Z,38.73
2018-01-08T10:55:10.075Z,38.13
2018-01-08T10:57:37.559Z,40.13
2018-01-08T11:00:05.030Z,43.90
2018-01-08T11:02:38.089Z,41.30
2018-01-08T11:05:05.627Z,38.47
2018-01-08T11:07:33.169Z,36.10
2018-01-08T11:10:00.626Z,50.10
2018-01-08T11:12:28.242Z,44.30
2018-01-08T11:14:55.724Z,49.40
2018-01-08T11:17:23.199Z,37.90
2018-01-08T11:19:50.671Z,43.50
2018-01-08T11:22:18.179Z,38.60
2018-01-08T11:24:45.702Z,36.57
2018-01-08T11:27:13.158Z,41.23
2018-01-08T11:29:40.632Z,42.20
2018-01-08T11:32:08.084Z,40.10
2018-01-08T11:34:35.588Z,42.70
2018-01-08T11:37:03.032Z,44.90
2018-01-08T11:39:30.486Z,38.47
2018-01-08T11:41:58.004Z,41.17
2018-01-08T11:44:25.469Z,51.67
2018-01-08T11:46:52.951Z,48.77
2018-01-08T11:49:20.419Z,41.93
2018-01-08T11:51:47.894Z,48.40
2018-01-08T11:54:15.343Z,40.47
2018-01-08T11:56:42.817Z,40.67
2018-01-08T11:59:10.399Z,44.87
2018-01-08T12:01:37.885Z,48.37
2018-01-08T12:04:05.390Z,46.83
2018-01-08T12:06:32.842Z,51.53
2018-01-08T12:09:00.363Z,49.77
2018-01-08T12:11:27.843Z,52.57
2018-01-08T12:13:55.330Z,45.80
2018-01-08T12:16:22.839Z,48.70
2018-01-08T12:18:51.607Z,44.00
2018-01-08T12:21:19.265Z,42.80
2018-01-08T12:23:46.742Z,44.53
2018-01-08T12:26:14.209Z,50.20
2018-01-08T12:28:41.667Z,44.00
2018-01-08T12:31:09.119Z,44.03
2018-01-08T12:33:36.568Z,46.03
2018-01-08T12:36:04.029Z,45.97
2018-01-08T12:38:31.513Z,47.27
2018-01-08T12:40:58.980Z,44.20
2018-01-08T12:43:26.512Z,45.20
2018-01-08T12:45:53.970Z,58.07
2018-01-08T12:48:21.446Z,49.67
2018-01-08T12:50:48.964Z,48.03
2018-01-08T12:53:16.491Z,53.50
2018-01-08T12:55:43.965Z,46.13
2018-01-08T12:58:11.439Z,46.83
2018-01-08T13:00:38.926Z,44.73
2018-01-08T13:03:06.381Z,48.77
2018-01-08T13:05:33.852Z,37.90
2018-01-08T13:08:01.348Z,46.43
2018-01-08T13:10:28.826Z,44.40
2018-01-08T13:12:56.280Z,45.67
2018-01-08T13:15:23.756Z,43.23
2018-01-08T13:17:51.223Z,40.30
2018-01-08T13:20:18.813Z,38.13
2018-01-08T13:22:46.277Z,43.40
2018-01-08T13:25:13.738Z,40.10
2018-01-08T13:27:41.226Z,42.33
2018-01-08T13:30:08.701Z,61.53
2018-01-08T13:32:36.177Z,45.83
2018-01-08T13:35:03.671Z,42.70
2018-01-08T13:37:31.126Z,46.87
2018-01-08T13:39:58.605Z,42.97
2018-01-08T13:42:26.103Z,40.97
2018-01-08T13:44:53.574Z,44.00
2018-01-08T13:47:21.060Z,46.20
2018-01-08T13:49:48.556Z,51.00
2018-01-08T13:52:16.847Z,42.60
2018-01-08T13:54:45.035Z,42.80
2018-01-08T13:57:12.538Z,45.60
2018-01-08T13:59:40.018Z,39.70
2018-01-08T14:02:07.488Z,41.20
2018-01-08T14:04:35.039Z,42.23
2018-01-08T14:07:02.525Z,36.40
2018-01-08T14:09:30.314Z,41.63
2018-01-08T14:11:57.780Z,39.70
2018-01-08T14:14:25.243Z,46.20
2018-01-08T14:16:52.710Z,38.97
2018-01-08T14:19:20.187Z,38.60
2018-01-08T14:21:47.638Z,37.70
2018-01-08T14:24:15.125Z,38.83
2018-01-08T14:26:42.599Z,35.90
2018-01-08T14:29:10.101Z,38.10
2018-01-08T14:31:37.585Z,40.50
2018-01-08T14:34:05.102Z,40.73
2018-01-08T14:36:32.656Z,36.93
2018-01-08T14:39:00.145Z,34.80
2018-01-08T14:41:27.607Z,38.17
2018-01-08T14:43:55.098Z,40.70
2018-01-08T14:46:22.599Z,39.07
2018-01-08T14:48:50.082Z,37.87
2018-01-08T14:51:17.828Z,38.53
2018-01-08T14:53:45.313Z,39.70
2018-01-08T14:56:12.775Z,36.30
2018-01-08T14:58:40.883Z,35.00
2018-01-08T15:01:08.361Z,40.77
2018-01-08T15:03:35.814Z,39.00
2018-01-08T15:06:03.312Z,42.30
2018-01-08T15:08:30.876Z,40.30
2018-01-08T15:10:58.394Z,44.73
2018-01-08T15:13:25.835Z,45.40
2018-01-08T15:15:53.302Z,48.53
2018-01-08T15:18:20.844Z,42.00
2018-01-08T15:20:48.321Z,48.67
2018-01-08T15:23:15.852Z,44.40
2018-01-08T15:25:43.324Z,43.00
2018-01-08T15:28:10.815Z,44.17
2018-01-08T15:30:38.290Z,45.40
2018-01-08T15:33:05.755Z,50.67
2018-01-08T15:35:33.247Z,44.03
2018-01-08T15:38:00.770Z,51.53
2018-01-08T15:40:28.270Z,46.57
2018-01-08T15:42:55.762Z,47.20
2018-01-08T15:45:23.241Z,43.40
2018-01-08T15:47:50.695Z,38.13
2018-01-08T15:50:18.191Z,51.13
2018-01-08T15:52:47.074Z,46.00
2018-01-08T15:55:14.550Z,46.60
2018-01-08T15:57:42.111Z,45.03
2018-01-08T16:00:09.618Z,50.17
2018-01-08T16:02:37.096Z,39.30
2018-01-08T16:05:04.576Z,43.77
2018-01-08T16:07:32.034Z,41.93
2018-01-08T16:09:59.509Z,42.60
2018-01-08T16:12:27.372Z,42.60
2018-01-08T16:14:54.914Z,50.77
2018-01-08T16:17:22.414Z,43.97
2018-01-08T16:19:49.888Z,42.60
2018-01-08T16:22:17.482Z,45.50
2018-01-08T16:24:45.413Z,47.63
2018-01-08T16:27:12.907Z,54.30
2018-01-08T16:29:40.391Z,43.23
2018-01-08T16:32:07.875Z,55.33
2018-01-08T16:34:37.888Z,51.10
2018-01-08T16:37:05.393Z,43.50
2018-01-08T16:39:33.867Z,50.47
2018-01-08T16:42:01.343Z,46.97
2018-01-08T16:44:28.800Z,53.20
2018-01-08T16:46:56.352Z,57.03
2018-01-08T16:49:23.807Z,52.23
2018-01-08T16:51:51.271Z,57.10
2018-01-08T16:54:18.777Z,49.83
2018-01-08T16:56:46.323Z,56.77
2018-01-08T16:59:13.805Z,51.80
2018-01-08T17:01:41.297Z,53.07
2018-01-08T17:04:08.791Z,51.80
2018-01-08T17:06:36.879Z,58.97
2018-01-08T17:09:04.411Z,48.47
2018-01-08T17:11:31.911Z,53.67
2018-01-08T17:13:59.424Z,50.47
2018-01-08T17:16:26.945Z,54.67
2018-01-08T17:18:54.440Z,57.70
2018-01-08T17:21:21.933Z,63.33
2018-01-08T17:23:49.466Z,64.93
2018-01-08T17:26:17.147Z,48.93
2018-01-08T17:28:44.643Z,56.00
2018-01-08T17:31:12.199Z,54.03
2018-01-08T17:33:39.706Z,59.90
2018-01-08T17:36:07.208Z,62.77
2018-01-08T17:38:34.814Z,62.10
2018-01-08T17:41:02.399Z,57.27
2018-01-08T17:43:29.908Z,55.20
2018-01-08T17:45:57.399Z,53.93
2018-01-08T17:48:25.114Z,65.93
2018-01-08T17:50:52.618Z,61.53
2018-01-08T17:53:20.183Z,52.17
2018-01-08T17:55:47.706Z,70.80
2018-01-08T17:58:15.253Z,56.43
2018-01-08T18:00:42.780Z,57.27
2018-01-08T18:03:10.301Z,52.53
2018-01-08T18:05:37.797Z,55.43
2018-01-08T18:08:05.311Z,76.93
2018-01-08T18:10:33.288Z,57.60
2018-01-08T18:13:00.831Z,65.20
2018-01-08T18:15:28.327Z,56.17
2018-01-08T18:17:55.829Z,69.63
2018-01-08T18:20:23.345Z,66.27
2018-01-08T18:22:50.814Z,64.70
2018-01-08T18:25:18.313Z,62.17
2018-01-08T18:27:45.899Z,57.30
2018-01-08T18:30:13.415Z,57.87
2018-01-08T18:32:41.969Z,64.77
2018-01-08T18:35:09.516Z,60.87
2018-01-08T18:37:37.036Z,56.37
2018-01-08T18:40:04.606Z,53.83
2018-01-08T18:42:32.364Z,58.33
2018-01-08T18:44:59.909Z,63.20
2018-01-08T18:47:27.427Z,60.83
2018-01-08T18:49:54.958Z,51.70
2018-01-08T18:52:22.460Z,56.87
2018-01-08T18:54:49.977Z,64.37
2018-01-08T18:57:17.574Z,55.10
2018-01-08T18:59:45.088Z,53.13
2018-01-08T19:02:12.632Z,54.13
2018-01-08T19:04:40.200Z,66.90
2018-01-08T19:07:07.704Z,60.63
2018-01-08T19:09:35.198Z,61.40
2018-01-08T19:12:02.701Z,67.70
2018-01-08T19:14:30.232Z,64.33
2018-01-08T19:16:57.743Z,66.60
2018-01-08T19:19:25.258Z,68.00
2018-01-08T19:21:52.721Z,59.67
2018-01-08T19:24:20.183Z,61.43
2018-01-08T19:26:47.656Z,71.20
2018-01-08T19:29:15.141Z,69.53
2018-01-08T19:31:42.701Z,61.33
2018-01-08T19:34:10.209Z,64.97
2018-01-08T19:36:37.664Z,55.70
2018-01-08T19:39:05.223Z,66.87
2018-01-08T19:41:32.693Z,70.47
2018-01-08T19:44:00.982Z,70.53
2018-01-08T19:46:28.433Z,64.87
2018-01-08T19:48:55.962Z,79.27
2018-01-08T19:51:23.477Z,74.40
2018-01-08T19:53:51.074Z,77.40
2018-01-08T19:56:18.541Z,77.97
2018-01-08T19:58:46.209Z,70.43
2018-01-08T20:01:13.728Z,79.77
2018-01-08T20:03:41.208Z,81.60
2018-01-08T20:06:08.727Z,73.83
2018-01-08T20:08:36.306Z,74.23
2018-01-08T20:11:03.808Z,90.90
2018-01-08T20:13:31.358Z,75.47
2018-01-08T20:15:58.890Z,92.77
2018-01-08T20:18:26.437Z,71.77
2018-01-08T20:20:53.919Z,83.83
2018-01-08T20:23:21.427Z,97.50
2018-01-08T20:25:49.006Z,81.20
2018-01-08T20:28:16.722Z,102.40
2018-01-08T20:30:44.226Z,115.67
2018-01-08T20:33:11.702Z,106.90
2018-01-08T20:35:39.151Z,96.10
2018-01-08T20:38:06.687Z,96.80
2018-01-08T20:40:34.305Z,100.50
2018-01-08T20:43:01.858Z,104.80
2018-01-08T20:45:29.354Z,122.10
2018-01-08T20:47:56.876Z,95.50
2018-01-08T20:50:24.351Z,103.43
2018-01-08T20:52:51.822Z,116.13
2018-01-08T20:55:19.290Z,99.40
2018-01-08T20:57:46.807Z,116.43
2018-01-08T21:00:14.328Z,92.47
2018-01-08T21:02:41.809Z,126.93
2018-01-08T21:05:10.300Z,134.97
2018-01-08T21:07:37.801Z,137.03
2018-01-08T21:10:05.270Z,135.60
2018-01-08T21:12:32.764Z,134.53
2018-01-08T21:15:00.252Z,147.00
2018-01-08T21:17:27.748Z,138.90
2018-01-08T21:19:55.228Z,152.90
2018-01-08T21:22:22.718Z,193.43
2018-01-08T21:24:50.204Z,202.10
2018-01-08T21:27:17.798Z,185.63
2018-01-08T21:29:45.311Z,164.23
2018-01-08T21:32:12.793Z,158.90
2018-01-08T21:34:40.290Z,205.27
2018-01-08T21:37:07.747Z,193.37
2018-01-08T21:39:35.273Z,196.30
2018-01-08T21:42:02.798Z,169.87
2018-01-08T21:44:30.286Z,167.30
2018-01-08T21:46:57.755Z,157.43
2018-01-08T21:49:25.243Z,154.47
2018-01-08T21:51:52.695Z,122.73
2018-01-08T21:54:20.173Z,114.27
2018-01-08T21:56:47.648Z,91.40
2018-01-08T21:59:15.121Z,97.40
2018-01-08T22:01:42.590Z,95.30
2018-01-08T22:04:10.052Z,86.53
2018-01-08T22:06:37.530Z,91.70
2018-01-08T22:09:05.066Z,74.17
2018-01-08T22:11:32.526Z,84.40
2018-01-08T22:13:59.986Z,86.37
2018-01-08T22:16:27.466Z,70.10
2018-01-08T22:18:54.934Z,69.70
2018-01-08T22:21:22.473Z,63.57
2018-01-08T22:23:49.940Z,70.00
2018-01-08T22:26:17.526Z,67.90
2018-01-08T22:28:45.018Z,70.83
2018-01-08T22:31:12.499Z,60.13
2018-01-08T22:33:39.963Z,79.50
2018-01-08T22:36:07.440Z,73.73
2018-01-08T22:38:35.235Z,77.60
2018-01-08T22:41:02.720Z,68.57
2018-01-08T22:43:30.187Z,75.70
2018-01-08T22:45:57.655Z,76.73
2018-01-08T22:48:25.217Z,81.77
2018-01-08T22:50:52.742Z,81.63
2018-01-08T22:53:20.210Z,71.53
2018-01-08T22:55:47.684Z,79.00
2018-01-08T22:58:15.403Z,82.37
2018-01-08T23:00:42.928Z,82.40
2018-01-08T23:03:10.439Z,90.63
2018-01-08T23:05:37.896Z,93.03
2018-01-08T23:08:05.363Z,96.70
2018-01-08T23:10:33.119Z,99.17
2018-01-08T23:13:00.614Z,99.33
2018-01-08T23:15:28.103Z,105.70
2018-01-08T23:17:55.602Z,110.37
2018-01-08T23:20:23.055Z,120.83
2018-01-08T23:22:50.564Z,141.40
2018-01-08T23:25:18.044Z,129.60
2018-01-08T23:27:45.525Z,133.57
2018-01-08T23:30:13.000Z,130.47
2018-01-08T23:32:40.482Z,142.80
2018-01-08T23:35:07.994Z,135.77
2018-01-08T23:37:35.484Z,138.60
2018-01-08T23:40:03.067Z,143.10
2018-01-08T23:42:30.712Z,138.67
2018-01-08T23:44:58.204Z,152.80
2018-01-08T23:47:25.667Z,150.57
2018-01-08T23:49:53.159Z,138.20
2018-01-08T23:52:20.680Z,138.27
2018-01-08T23:54:48.286Z,138.07
2018-01-08T23:57:15.947Z,132.00
2018-01-08T23:59:43.428Z,115.83
